sensor_id;sensor_type;location;lat;lon;timestamp;pressure;altitude;pressure_sealevel;temperature;humidity
13705;BME280;6924;52.122;9.952;2023-01-19T00:01:39;99110.44;;;-1.77;91.85
13705;BME280;6924;52.122;9.952;2023-01-19T00:04:06;99115.41;;;-1.79;91.97
13705;BME280;6924;52.122;9.952;2023-01-19T00:06:32;99110.69;;;-1.79;92.27
13705;BME280;6924;52.122;9.952;2023-01-19T00:08:58;99109.06;;;-1.75;91.95
13705;BME280;6924;52.122;9.952;2023-01-19T00:11:26;99109.53;;;-1.88;92.29
13705;BME280;6924;52.122;9.952;2023-01-19T00:13:52;99110.91;;;-1.91;92.75
13705;BME280;6924;52.122;9.952;2023-01-19T00:16:20;99103.41;;;-1.95;93.17
13705;BME280;6924;52.122;9.952;2023-01-19T00:18:48;99101.47;;;-1.95;93.39
13705;BME280;6924;52.122;9.952;2023-01-19T00:21:16;99094.28;;;-1.91;93.35
13705;BME280;6924;52.122;9.952;2023-01-19T00:23:43;99087.09;;;-1.92;93.89
13705;BME280;6924;52.122;9.952;2023-01-19T00:26:11;99098.75;;;-1.90;93.57
13705;BME280;6924;52.122;9.952;2023-01-19T00:28:39;99093.19;;;-1.90;93.26
13705;BME280;6924;52.122;9.952;2023-01-19T00:31:05;99092.34;;;-1.90;93.39
13705;BME280;6924;52.122;9.952;2023-01-19T00:33:32;99093.69;;;-1.98;94.10
13705;BME280;6924;52.122;9.952;2023-01-19T00:35:58;99090.13;;;-1.93;94.29
13705;BME280;6924;52.122;9.952;2023-01-19T00:38:24;99096.19;;;-1.96;94.40
13705;BME280;6924;52.122;9.952;2023-01-19T00:40:51;99097.84;;;-2.00;94.37
13705;BME280;6924;52.122;9.952;2023-01-19T00:43:18;99100.34;;;-1.99;94.79
13705;BME280;6924;52.122;9.952;2023-01-19T00:45:45;99102.00;;;-1.98;95.05
13705;BME280;6924;52.122;9.952;2023-01-19T00:48:12;99097.31;;;-1.97;94.70
13705;BME280;6924;52.122;9.952;2023-01-19T00:50:38;99094.53;;;-1.97;94.81
13705;BME280;6924;52.122;9.952;2023-01-19T00:53:04;99091.50;;;-1.96;94.57
13705;BME280;6924;52.122;9.952;2023-01-19T00:55:31;99093.41;;;-1.96;94.83
13705;BME280;6924;52.122;9.952;2023-01-19T00:57:58;99091.16;;;-2.04;95.12
13705;BME280;6924;52.122;9.952;2023-01-19T01:00:25;99090.59;;;-2.06;95.54
13705;BME280;6924;52.122;9.952;2023-01-19T01:02:53;99083.38;;;-2.08;95.50
13705;BME280;6924;52.122;9.952;2023-01-19T01:05:20;99082.53;;;-2.13;95.50
13705;BME280;6924;52.122;9.952;2023-01-19T01:07:47;99083.91;;;-2.16;96.27
13705;BME280;6924;52.122;9.952;2023-01-19T01:10:16;99089.72;;;-2.12;96.26
13705;BME280;6924;52.122;9.952;2023-01-19T01:12:43;99086.69;;;-2.11;96.44
13705;BME280;6924;52.122;9.952;2023-01-19T01:15:11;99089.22;;;-2.09;96.31
13705;BME280;6924;52.122;9.952;2023-01-19T01:17:38;99087.25;;;-2.09;95.88
13705;BME280;6924;52.122;9.952;2023-01-19T01:20:14;99094.75;;;-2.09;95.91
13705;BME280;6924;52.122;9.952;2023-01-19T01:22:46;99097.53;;;-2.04;95.71
13705;BME280;6924;52.122;9.952;2023-01-19T01:25:13;99093.13;;;-2.05;95.79
13705;BME280;6924;52.122;9.952;2023-01-19T01:27:40;99099.16;;;-2.08;95.68
13705;BME280;6924;52.122;9.952;2023-01-19T01:30:08;99106.09;;;-2.05;95.55
13705;BME280;6924;52.122;9.952;2023-01-19T01:32:35;99096.13;;;-2.06;95.70
13705;BME280;6924;52.122;9.952;2023-01-19T01:35:02;99101.97;;;-2.03;95.64
13705;BME280;6924;52.122;9.952;2023-01-19T01:37:30;99095.88;;;-2.05;96.28
13705;BME280;6924;52.122;9.952;2023-01-19T01:39:56;99106.41;;;-2.07;96.08
13705;BME280;6924;52.122;9.952;2023-01-19T01:42:26;99101.13;;;-2.03;96.16
13705;BME280;6924;52.122;9.952;2023-01-19T01:44:54;99106.97;;;-2.05;96.00
13705;BME280;6924;52.122;9.952;2023-01-19T01:47:28;99101.44;;;-2.05;96.37
13705;BME280;6924;52.122;9.952;2023-01-19T01:50:00;99102.25;;;-2.04;96.38
13705;BME280;6924;52.122;9.952;2023-01-19T01:52:31;99103.34;;;-2.05;96.67
13705;BME280;6924;52.122;9.952;2023-01-19T01:54:59;99100.91;;;-1.97;96.71
13705;BME280;6924;52.122;9.952;2023-01-19T01:57:28;99092.91;;;-1.93;96.64
13705;BME280;6924;52.122;9.952;2023-01-19T01:59:56;99099.00;;;-1.91;96.05
13705;BME280;6924;52.122;9.952;2023-01-19T02:02:26;99096.81;;;-1.89;96.16
13705;BME280;6924;52.122;9.952;2023-01-19T02:05:16;99096.00;;;-1.84;95.49
13705;BME280;6924;52.122;9.952;2023-01-19T02:07:49;99096.56;;;-1.82;95.71
13705;BME280;6924;52.122;9.952;2023-01-19T02:10:35;99093.22;;;-1.79;95.71
13705;BME280;6924;52.122;9.952;2023-01-19T02:13:20;99101.28;;;-1.78;95.26
13705;BME280;6924;52.122;9.952;2023-01-19T02:15:48;99106.84;;;-1.78;94.90
13705;BME280;6924;52.122;9.952;2023-01-19T02:18:15;99110.44;;;-1.77;94.71
13705;BME280;6924;52.122;9.952;2023-01-19T02:20:45;99109.34;;;-1.71;94.28
13705;BME280;6924;52.122;9.952;2023-01-19T02:23:19;99104.06;;;-1.73;94.29
13705;BME280;6924;52.122;9.952;2023-01-19T02:25:49;99105.75;;;-1.72;94.81
13705;BME280;6924;52.122;9.952;2023-01-19T02:28:15;99103.00;;;-1.67;94.14
13705;BME280;6924;52.122;9.952;2023-01-19T02:30:42;99101.34;;;-1.62;94.32
13705;BME280;6924;52.122;9.952;2023-01-19T02:33:09;99111.63;;;-1.63;94.14
13705;BME280;6924;52.122;9.952;2023-01-19T02:35:36;99101.34;;;-1.62;94.35
13705;BME280;6924;52.122;9.952;2023-01-19T02:38:04;99111.34;;;-1.61;94.23
13705;BME280;6924;52.122;9.952;2023-01-19T02:40:32;99114.41;;;-1.63;94.31
13705;BME280;6924;52.122;9.952;2023-01-19T02:43:01;99106.91;;;-1.62;94.37
13705;BME280;6924;52.122;9.952;2023-01-19T02:45:28;99099.44;;;-1.57;93.58
13705;BME280;6924;52.122;9.952;2023-01-19T02:47:55;99091.66;;;-1.60;94.04
13705;BME280;6924;52.122;9.952;2023-01-19T02:50:38;99092.53;;;-1.54;93.57
13705;BME280;6924;52.122;9.952;2023-01-19T02:53:15;99091.41;;;-1.53;93.62
13705;BME280;6924;52.122;9.952;2023-01-19T02:55:51;99097.25;;;-1.50;93.54
13705;BME280;6924;52.122;9.952;2023-01-19T02:58:22;99096.41;;;-1.50;93.43
13705;BME280;6924;52.122;9.952;2023-01-19T03:00:56;99083.66;;;-1.51;93.92
13705;BME280;6924;52.122;9.952;2023-01-19T03:03:29;99081.44;;;-1.49;93.86
13705;BME280;6924;52.122;9.952;2023-01-19T03:06:02;99072.88;;;-1.48;93.58
13705;BME280;6924;52.122;9.952;2023-01-19T03:08:40;99070.34;;;-1.49;93.66
13705;BME280;6924;52.122;9.952;2023-01-19T03:11:09;99075.34;;;-1.51;93.63
13705;BME280;6924;52.122;9.952;2023-01-19T03:13:42;99075.88;;;-1.54;93.99
13705;BME280;6924;52.122;9.952;2023-01-19T03:16:14;99069.50;;;-1.55;94.67
13705;BME280;6924;52.122;9.952;2023-01-19T03:18:45;99079.75;;;-1.50;94.13
13705;BME280;6924;52.122;9.952;2023-01-19T03:21:13;99068.66;;;-1.50;94.62
13705;BME280;6924;52.122;9.952;2023-01-19T03:23:44;99068.66;;;-1.50;93.80
13705;BME280;6924;52.122;9.952;2023-01-19T03:26:15;99080.59;;;-1.55;94.34
13705;BME280;6924;52.122;9.952;2023-01-19T03:28:45;99070.88;;;-1.52;94.79
13705;BME280;6924;52.122;9.952;2023-01-19T03:31:14;99070.63;;;-1.51;94.65
13705;BME280;6924;52.122;9.952;2023-01-19T03:33:45;99072.56;;;-1.46;94.38
13705;BME280;6924;52.122;9.952;2023-01-19T03:36:14;99073.13;;;-1.49;94.40
13705;BME280;6924;52.122;9.952;2023-01-19T03:38:45;99068.41;;;-1.49;94.66
13705;BME280;6924;52.122;9.952;2023-01-19T03:41:15;99083.09;;;-1.53;94.83
13705;BME280;6924;52.122;9.952;2023-01-19T03:43:46;99080.06;;;-1.52;94.45
13705;BME280;6924;52.122;9.952;2023-01-19T03:46:14;99067.03;;;-1.51;95.44
13705;BME280;6924;52.122;9.952;2023-01-19T03:48:43;99069.78;;;-1.46;94.55
13705;BME280;6924;52.122;9.952;2023-01-19T03:51:10;99055.66;;;-1.44;94.82
13705;BME280;6924;52.122;9.952;2023-01-19T03:53:37;99057.06;;;-1.47;95.04
13705;BME280;6924;52.122;9.952;2023-01-19T03:56:04;99056.75;;;-1.51;95.15
13705;BME280;6924;52.122;9.952;2023-01-19T03:58:31;99058.44;;;-1.50;95.07
13705;BME280;6924;52.122;9.952;2023-01-19T04:00:59;99059.81;;;-1.47;95.33
13705;BME280;6924;52.122;9.952;2023-01-19T04:03:25;99058.44;;;-1.50;95.29
13705;BME280;6924;52.122;9.952;2023-01-19T04:05:52;99065.34;;;-1.52;95.40
13705;BME280;6924;52.122;9.952;2023-01-19T04:08:18;99064.50;;;-1.53;96.15
13705;BME280;6924;52.122;9.952;2023-01-19T04:10:45;99061.47;;;-1.51;95.49
13705;BME280;6924;52.122;9.952;2023-01-19T04:13:11;99072.88;;;-1.48;95.45
13705;BME280;6924;52.122;9.952;2023-01-19T04:15:37;99071.75;;;-1.47;95.49
13705;BME280;6924;52.122;9.952;2023-01-19T04:18:05;99070.91;;;-1.47;95.64
13705;BME280;6924;52.122;9.952;2023-01-19T04:20:32;99061.47;;;-1.51;95.84
13705;BME280;6924;52.122;9.952;2023-01-19T04:22:59;99056.47;;;-1.54;95.09
13705;BME280;6924;52.122;9.952;2023-01-19T04:25:26;99061.16;;;-1.55;95.56
13705;BME280;6924;52.122;9.952;2023-01-19T04:27:53;99066.44;;;-1.53;95.83
13705;BME280;6924;52.122;9.952;2023-01-19T04:30:22;99060.66;;;-1.52;95.86
13705;BME280;6924;52.122;9.952;2023-01-19T04:32:49;99061.22;;;-1.50;95.92
13705;BME280;6924;52.122;9.952;2023-01-19T04:35:17;99060.91;;;-1.48;95.82
13705;BME280;6924;52.122;9.952;2023-01-19T04:37:43;99061.22;;;-1.44;95.97
13705;BME280;6924;52.122;9.952;2023-01-19T04:40:11;99065.06;;;-1.46;95.74
13705;BME280;6924;52.122;9.952;2023-01-19T04:42:37;99062.03;;;-1.44;95.36
13705;BME280;6924;52.122;9.952;2023-01-19T04:45:04;99075.91;;;-1.44;95.77
13705;BME280;6924;52.122;9.952;2023-01-19T04:47:31;99066.19;;;-1.41;95.75
13705;BME280;6924;52.122;9.952;2023-01-19T04:49:57;99073.19;;;-1.34;95.72
13705;BME280;6924;52.122;9.952;2023-01-19T04:52:30;99072.59;;;-1.41;96.45
13705;BME280;6924;52.122;9.952;2023-01-19T04:54:59;99069.00;;;-1.36;96.79
13705;BME280;6924;52.122;9.952;2023-01-19T04:57:25;99065.69;;;-1.33;96.98
13705;BME280;6924;52.122;9.952;2023-01-19T04:59:51;99069.31;;;-1.28;96.62
13705;BME280;6924;52.122;9.952;2023-01-19T05:02:18;99073.47;;;-1.25;95.86
13705;BME280;6924;52.122;9.952;2023-01-19T05:04:44;99065.72;;;-1.18;95.62
13705;BME280;6924;52.122;9.952;2023-01-19T05:07:10;99063.78;;;-1.17;95.51
13705;BME280;6924;52.122;9.952;2023-01-19T05:09:38;99064.31;;;-1.15;94.85
13705;BME280;6924;52.122;9.952;2023-01-19T05:12:05;99064.31;;;-1.15;95.36
13705;BME280;6924;52.122;9.952;2023-01-19T05:14:31;99071.25;;;-1.13;95.59
13705;BME280;6924;52.122;9.952;2023-01-19T05:16:58;99067.94;;;-1.15;95.26
13705;BME280;6924;52.122;9.952;2023-01-19T05:19:26;99081.84;;;-1.05;94.99
13705;BME280;6924;52.122;9.952;2023-01-19T05:21:53;99081.84;;;-1.05;94.75
13705;BME280;6924;52.122;9.952;2023-01-19T05:24:19;99097.41;;;-1.03;94.60
13705;BME280;6924;52.122;9.952;2023-01-19T05:26:47;99088.78;;;-1.07;94.35
13705;BME280;6924;52.122;9.952;2023-01-19T05:29:14;99092.09;;;-1.05;94.28
13705;BME280;6924;52.122;9.952;2023-01-19T05:31:40;99092.94;;;-1.05;93.96
13705;BME280;6924;52.122;9.952;2023-01-19T05:34:09;99092.66;;;-1.03;93.45
13705;BME280;6924;52.122;9.952;2023-01-19T05:36:36;99092.94;;;-0.99;93.78
13705;BME280;6924;52.122;9.952;2023-01-19T05:39:03;99095.75;;;-0.94;93.83
13705;BME280;6924;52.122;9.952;2023-01-19T05:41:29;99086.03;;;-0.97;93.60
13705;BME280;6924;52.122;9.952;2023-01-19T05:43:57;99084.03;;;-1.01;94.86
13705;BME280;6924;52.122;9.952;2023-01-19T05:46:23;99093.78;;;-0.99;94.64
13705;BME280;6924;52.122;9.952;2023-01-19T05:48:50;99091.84;;;-0.98;94.30
13705;BME280;6924;52.122;9.952;2023-01-19T05:51:16;99092.41;;;-0.91;94.18
13705;BME280;6924;52.122;9.952;2023-01-19T05:53:43;99087.41;;;-0.89;94.44
13705;BME280;6924;52.122;9.952;2023-01-19T05:56:10;99087.13;;;-0.93;94.31
13705;BME280;6924;52.122;9.952;2023-01-19T05:58:37;99090.75;;;-0.87;94.24
13705;BME280;6924;52.122;9.952;2023-01-19T06:01:08;99078.25;;;-0.90;94.29
13705;BME280;6924;52.122;9.952;2023-01-19T06:03:36;99090.75;;;-0.87;94.33
13705;BME280;6924;52.122;9.952;2023-01-19T06:06:03;99087.97;;;-0.87;93.95
13705;BME280;6924;52.122;9.952;2023-01-19T06:08:30;99093.81;;;-0.84;94.30
13705;BME280;6924;52.122;9.952;2023-01-19T06:10:56;99093.25;;;-0.80;93.25
13705;BME280;6924;52.122;9.952;2023-01-19T06:13:23;99092.41;;;-0.76;93.20
13705;BME280;6924;52.122;9.952;2023-01-19T06:15:55;99090.75;;;-0.82;93.91
13705;BME280;6924;52.122;9.952;2023-01-19T06:18:23;99090.47;;;-0.86;94.51
13705;BME280;6924;52.122;9.952;2023-01-19T06:20:50;99105.47;;;-0.81;94.46
13705;BME280;6924;52.122;9.952;2023-01-19T06:23:16;99090.22;;;-0.79;93.94
13705;BME280;6924;52.122;9.952;2023-01-19T06:25:43;99096.03;;;-0.75;94.25
13705;BME280;6924;52.122;9.952;2023-01-19T06:28:09;99100.19;;;-0.73;93.72
13705;BME280;6924;52.122;9.952;2023-01-19T06:30:35;99094.09;;;-0.65;93.98
13705;BME280;6924;52.122;9.952;2023-01-19T06:33:02;99101.03;;;-0.67;93.97
13705;BME280;6924;52.122;9.952;2023-01-19T06:35:29;99101.31;;;-0.64;94.16
13705;BME280;6924;52.122;9.952;2023-01-19T06:37:56;99103.84;;;-0.57;93.21
13705;BME280;6924;52.122;9.952;2023-01-19T06:40:22;99101.88;;;-0.56;93.27
13705;BME280;6924;52.122;9.952;2023-01-19T06:42:49;99105.75;;;-0.57;93.04
13705;BME280;6924;52.122;9.952;2023-01-19T06:45:15;99107.41;;;-0.51;93.05
13705;BME280;6924;52.122;9.952;2023-01-19T06:47:41;99106.59;;;-0.52;92.66
13705;BME280;6924;52.122;9.952;2023-01-19T06:50:09;99102.16;;;-0.58;92.77
13705;BME280;6924;52.122;9.952;2023-01-19T06:52:37;99119.63;;;-0.57;93.51
13705;BME280;6924;52.122;9.952;2023-01-19T06:55:07;99114.38;;;-0.54;93.37
13705;BME280;6924;52.122;9.952;2023-01-19T06:57:35;99111.31;;;-0.52;92.99
13705;BME280;6924;52.122;9.952;2023-01-19T07:00:03;99111.03;;;-0.56;93.07
13705;BME280;6924;52.122;9.952;2023-01-19T07:02:32;99112.72;;;-0.50;93.43
13705;BME280;6924;52.122;9.952;2023-01-19T07:04:58;99106.88;;;-0.48;92.91
13705;BME280;6924;52.122;9.952;2023-01-19T07:07:25;99112.97;;;-0.51;92.69
13705;BME280;6924;52.122;9.952;2023-01-19T07:09:52;99117.16;;;-0.54;92.87
13705;BME280;6924;52.122;9.952;2023-01-19T07:12:19;99117.41;;;-0.55;92.65
13705;BME280;6924;52.122;9.952;2023-01-19T07:14:45;99109.38;;;-0.52;92.45
13705;BME280;6924;52.122;9.952;2023-01-19T07:17:13;99112.72;;;-0.55;92.70
13705;BME280;6924;52.122;9.952;2023-01-19T07:19:40;99106.03;;;-0.54;92.28
13705;BME280;6924;52.122;9.952;2023-01-19T07:22:06;99120.50;;;-0.57;92.45
13705;BME280;6924;52.122;9.952;2023-01-19T07:24:32;99119.94;;;-0.54;91.73
13705;BME280;6924;52.122;9.952;2023-01-19T07:27:01;99119.94;;;-0.54;92.21
13705;BME280;6924;52.122;9.952;2023-01-19T07:29:27;99117.97;;;-0.53;92.50
13705;BME280;6924;52.122;9.952;2023-01-19T07:31:53;99127.69;;;-0.56;91.90
13705;BME280;6924;52.122;9.952;2023-01-19T07:34:20;99126.59;;;-0.55;92.23
13705;BME280;6924;52.122;9.952;2023-01-19T07:36:47;99122.72;;;-0.59;92.24
13705;BME280;6924;52.122;9.952;2023-01-19T07:39:13;99126.31;;;-0.64;92.88
13705;BME280;6924;52.122;9.952;2023-01-19T07:41:40;99129.09;;;-0.64;92.69
13705;BME280;6924;52.122;9.952;2023-01-19T07:44:08;99129.09;;;-0.58;92.33
13705;BME280;6924;52.122;9.952;2023-01-19T07:46:34;99135.22;;;-0.61;92.51
13705;BME280;6924;52.122;9.952;2023-01-19T07:49:01;99125.75;;;-0.60;92.15
13705;BME280;6924;52.122;9.952;2023-01-19T07:51:27;99127.97;;;-0.68;92.49
13705;BME280;6924;52.122;9.952;2023-01-19T07:53:53;99127.97;;;-0.68;92.90
13705;BME280;6924;52.122;9.952;2023-01-19T07:56:20;99123.25;;;-0.72;92.67
13705;BME280;6924;52.122;9.952;2023-01-19T07:58:47;99124.63;;;-0.70;92.44
13705;BME280;6924;52.122;9.952;2023-01-19T08:01:15;99127.94;;;-0.73;92.82
13705;BME280;6924;52.122;9.952;2023-01-19T08:03:42;99130.19;;;-0.75;92.97
13705;BME280;6924;52.122;9.952;2023-01-19T08:06:13;99126.56;;;-0.80;93.09
13705;BME280;6924;52.122;9.952;2023-01-19T08:08:44;99127.41;;;-0.85;92.49
13705;BME280;6924;52.122;9.952;2023-01-19T08:11:10;99138.75;;;-0.87;92.97
13705;BME280;6924;52.122;9.952;2023-01-19T08:13:37;99136.56;;;-0.85;93.51
13705;BME280;6924;52.122;9.952;2023-01-19T08:16:04;99144.34;;;-0.81;93.07
13705;BME280;6924;52.122;9.952;2023-01-19T08:18:32;99140.19;;;-0.79;93.27
13705;BME280;6924;52.122;9.952;2023-01-19T08:20:59;99147.38;;;-0.73;93.65
13705;BME280;6924;52.122;9.952;2023-01-19T08:23:25;99153.25;;;-0.69;93.85
13705;BME280;6924;52.122;9.952;2023-01-19T08:25:53;99157.97;;;-0.65;93.09
13705;BME280;6924;52.122;9.952;2023-01-19T08:28:20;99150.47;;;-0.64;92.83
13705;BME280;6924;52.122;9.952;2023-01-19T08:30:47;99147.16;;;-0.61;93.24
13705;BME280;6924;52.122;9.952;2023-01-19T08:33:18;99156.03;;;-0.54;93.41
13705;BME280;6924;52.122;9.952;2023-01-19T08:35:49;99162.41;;;-0.53;93.09
13705;BME280;6924;52.122;9.952;2023-01-19T08:38:16;99164.94;;;-0.52;93.13
13705;BME280;6924;52.122;9.952;2023-01-19T08:40:43;99168.25;;;-0.50;92.88
13705;BME280;6924;52.122;9.952;2023-01-19T08:43:12;99158.81;;;-0.49;93.33
13705;BME280;6924;52.122;9.952;2023-01-19T08:45:42;99164.94;;;-0.42;93.74
13705;BME280;6924;52.122;9.952;2023-01-19T08:48:12;99161.59;;;-0.38;93.86
13705;BME280;6924;52.122;9.952;2023-01-19T08:50:39;99157.44;;;-0.36;93.72
13705;BME280;6924;52.122;9.952;2023-01-19T08:53:08;99165.22;;;-0.28;93.07
13705;BME280;6924;52.122;9.952;2023-01-19T08:55:35;99172.72;;;-0.23;93.16
13705;BME280;6924;52.122;9.952;2023-01-19T08:58:02;99170.50;;;-0.21;92.48
13705;BME280;6924;52.122;9.952;2023-01-19T09:00:29;99174.38;;;-0.12;92.29
13705;BME280;6924;52.122;9.952;2023-01-19T09:02:58;99180.50;;;-0.10;92.08
13705;BME280;6924;52.122;9.952;2023-01-19T09:05:25;99175.22;;;-0.11;92.12
13705;BME280;6924;52.122;9.952;2023-01-19T09:07:52;99178.53;;;-0.09;92.19
13705;BME280;6924;52.122;9.952;2023-01-19T09:10:20;99184.13;;;-0.04;92.04
13705;BME280;6924;52.122;9.952;2023-01-19T09:12:46;99182.47;;;0.00;92.03
13705;BME280;6924;52.122;9.952;2023-01-19T09:15:13;99173.56;;;-0.02;91.81
13705;BME280;6924;52.122;9.952;2023-01-19T09:17:39;99186.91;;;0.01;92.05
13705;BME280;6924;52.122;9.952;2023-01-19T09:20:07;99184.41;;;0.05;92.11
13705;BME280;6924;52.122;9.952;2023-01-19T09:22:34;99189.66;;;0.06;92.52
13705;BME280;6924;52.122;9.952;2023-01-19T09:25:00;99188.00;;;0.10;92.78
13705;BME280;6924;52.122;9.952;2023-01-19T09:27:28;99186.59;;;0.13;92.11
13705;BME280;6924;52.122;9.952;2023-01-19T09:29:54;99196.63;;;0.14;91.80
13705;BME280;6924;52.122;9.952;2023-01-19T09:32:21;99199.38;;;0.19;91.86
13705;BME280;6924;52.122;9.952;2023-01-19T09:34:47;99193.25;;;0.17;91.77
13705;BME280;6924;52.122;9.952;2023-01-19T09:37:13;99208.25;;;0.26;92.63
13705;BME280;6924;52.122;9.952;2023-01-19T09:39:40;99207.72;;;0.24;92.08
13705;BME280;6924;52.122;9.952;2023-01-19T09:42:13;99214.97;;;0.25;92.23
13705;BME280;6924;52.122;9.952;2023-01-19T09:44:46;99218.56;;;0.20;92.00
13705;BME280;6924;52.122;9.952;2023-01-19T09:47:16;99224.13;;;0.26;92.15
13705;BME280;6924;52.122;9.952;2023-01-19T09:49:46;99220.50;;;0.30;92.95
13705;BME280;6924;52.122;9.952;2023-01-19T09:52:16;99221.59;;;0.39;93.21
13705;BME280;6924;52.122;9.952;2023-01-19T09:54:49;99222.72;;;0.38;92.50
13705;BME280;6924;52.122;9.952;2023-01-19T09:57:18;99216.59;;;0.36;92.87
13705;BME280;6924;52.122;9.952;2023-01-19T09:59:47;99222.44;;;0.35;93.09
13705;BME280;6924;52.122;9.952;2023-01-19T10:02:24;99220.78;;;0.34;93.12
13705;BME280;6924;52.122;9.952;2023-01-19T10:04:58;99214.41;;;0.33;93.63
13705;BME280;6924;52.122;9.952;2023-01-19T10:07:32;99219.97;;;0.33;93.74
13705;BME280;6924;52.122;9.952;2023-01-19T10:10:16;99223.84;;;0.32;93.65
13705;BME280;6924;52.122;9.952;2023-01-19T10:12:58;99218.00;;;0.34;93.69
13705;BME280;6924;52.122;9.952;2023-01-19T10:15:37;99210.75;;;0.33;94.17
13705;BME280;6924;52.122;9.952;2023-01-19T10:18:16;99205.47;;;0.36;94.94
13705;BME280;6924;52.122;9.952;2023-01-19T10:20:47;99207.13;;;0.37;94.73
13705;BME280;6924;52.122;9.952;2023-01-19T10:23:24;99195.19;;;0.37;95.51
13705;BME280;6924;52.122;9.952;2023-01-19T10:25:55;99192.97;;;0.34;95.71
13705;BME280;6924;52.122;9.952;2023-01-19T10:28:25;99191.00;;;0.34;96.14
13705;BME280;6924;52.122;9.952;2023-01-19T10:30:54;99208.00;;;0.38;96.08
13705;BME280;6924;52.122;9.952;2023-01-19T10:33:21;99220.50;;;0.40;95.55
13705;BME280;6924;52.122;9.952;2023-01-19T10:35:47;99221.59;;;0.45;95.74
13705;BME280;6924;52.122;9.952;2023-01-19T10:38:15;99227.16;;;0.50;95.41
13705;BME280;6924;52.122;9.952;2023-01-19T10:40:50;99228.25;;;0.59;96.68
13705;BME280;6924;52.122;9.952;2023-01-19T10:43:38;99232.66;;;0.75;96.40
13705;BME280;6924;52.122;9.952;2023-01-19T10:46:15;99234.84;;;0.89;95.49
13705;BME280;6924;52.122;9.952;2023-01-19T10:48:43;99238.16;;;0.96;94.78
13705;BME280;6924;52.122;9.952;2023-01-19T10:51:13;99235.91;;;1.03;94.68
13705;BME280;6924;52.122;9.952;2023-01-19T10:53:41;99230.28;;;1.13;94.02
13705;BME280;6924;52.122;9.952;2023-01-19T10:56:12;99236.69;;;1.14;93.58
13705;BME280;6924;52.122;9.952;2023-01-19T10:58:40;99235.03;;;1.13;93.62
13705;BME280;6924;52.122;9.952;2023-01-19T11:01:14;99237.25;;;1.16;93.84
13705;BME280;6924;52.122;9.952;2023-01-19T11:03:41;99239.75;;;1.12;95.83
13705;BME280;6924;52.122;9.952;2023-01-19T11:06:23;99237.56;;;1.09;97.41
13705;BME280;6924;52.122;9.952;2023-01-19T11:08:51;99243.94;;;1.10;98.13
13705;BME280;6924;52.122;9.952;2023-01-19T11:11:19;99239.78;;;1.07;98.78
13705;BME280;6924;52.122;9.952;2023-01-19T11:14:02;99240.63;;;1.08;98.57
13705;BME280;6924;52.122;9.952;2023-01-19T11:16:32;99234.53;;;1.00;97.49
13705;BME280;6924;52.122;9.952;2023-01-19T11:19:02;99229.22;;;1.04;97.86
13705;BME280;6924;52.122;9.952;2023-01-19T11:21:30;99234.50;;;1.06;98.89
13705;BME280;6924;52.122;9.952;2023-01-19T11:23:59;99236.41;;;1.10;98.60
13705;BME280;6924;52.122;9.952;2023-01-19T11:26:29;99234.47;;;1.16;98.61
13705;BME280;6924;52.122;9.952;2023-01-19T11:29:00;99240.31;;;1.19;98.33
13705;BME280;6924;52.122;9.952;2023-01-19T11:31:32;99243.41;;;1.13;98.55
13705;BME280;6924;52.122;9.952;2023-01-19T11:34:01;99250.59;;;1.19;98.50
13705;BME280;6924;52.122;9.952;2023-01-19T11:36:30;99254.78;;;1.21;98.37
13705;BME280;6924;52.122;9.952;2023-01-19T11:38:58;99249.75;;;1.18;98.16
13705;BME280;6924;52.122;9.952;2023-01-19T11:41:27;99250.91;;;1.17;98.11
13705;BME280;6924;52.122;9.952;2023-01-19T11:43:56;99247.25;;;1.17;99.21
13705;BME280;6924;52.122;9.952;2023-01-19T11:46:27;99239.72;;;1.22;98.99
13705;BME280;6924;52.122;9.952;2023-01-19T11:49:01;99245.25;;;1.28;99.57
13705;BME280;6924;52.122;9.952;2023-01-19T11:51:34;99251.09;;;1.31;99.69
13705;BME280;6924;52.122;9.952;2023-01-19T11:54:06;99241.34;;;1.34;99.77
13705;BME280;6924;52.122;9.952;2023-01-19T11:56:33;99250.50;;;1.39;99.80
13705;BME280;6924;52.122;9.952;2023-01-19T11:59:01;99246.59;;;1.40;100.00
13705;BME280;6924;52.122;9.952;2023-01-19T12:01:30;99260.78;;;1.44;99.89
13705;BME280;6924;52.122;9.952;2023-01-19T12:04:02;99259.13;;;1.43;99.92
13705;BME280;6924;52.122;9.952;2023-01-19T12:06:33;99259.66;;;1.50;99.54
13705;BME280;6924;52.122;9.952;2023-01-19T12:09:06;99256.88;;;1.45;99.89
13705;BME280;6924;52.122;9.952;2023-01-19T12:11:40;99263.06;;;1.37;99.83
13705;BME280;6924;52.122;9.952;2023-01-19T12:14:16;99255.22;;;1.44;99.69
13705;BME280;6924;52.122;9.952;2023-01-19T12:16:45;99258.25;;;1.48;100.00
13705;BME280;6924;52.122;9.952;2023-01-19T12:19:15;99261.34;;;1.46;100.00
13705;BME280;6924;52.122;9.952;2023-01-19T12:21:43;99262.47;;;1.40;100.00
13705;BME280;6924;52.122;9.952;2023-01-19T12:24:13;99267.22;;;1.34;100.00
13705;BME280;6924;52.122;9.952;2023-01-19T12:26:47;99268.06;;;1.40;100.00
13705;BME280;6924;52.122;9.952;2023-01-19T12:29:17;99273.09;;;1.38;100.00
13705;BME280;6924;52.122;9.952;2023-01-19T12:32:15;99264.13;;;1.41;100.00
13705;BME280;6924;52.122;9.952;2023-01-19T12:34:44;99276.44;;;1.30;100.00
13705;BME280;6924;52.122;9.952;2023-01-19T12:37:37;99275.91;;;1.33;100.00
13705;BME280;6924;52.122;9.952;2023-01-19T12:40:20;99288.97;;;1.32;100.00
13705;BME280;6924;52.122;9.952;2023-01-19T12:42:52;99278.44;;;1.19;100.00
13705;BME280;6924;52.122;9.952;2023-01-19T12:45:22;99289.03;;;1.17;100.00
13705;BME280;6924;52.122;9.952;2023-01-19T12:47:51;99284.00;;;1.19;100.00
13705;BME280;6924;52.122;9.952;2023-01-19T12:50:21;99287.94;;;1.08;100.00
13705;BME280;6924;52.122;9.952;2023-01-19T12:52:51;99302.97;;;1.17;100.00
13705;BME280;6924;52.122;9.952;2023-01-19T12:55:23;99298.78;;;1.19;100.00
13705;BME280;6924;52.122;9.952;2023-01-19T12:57:55;99302.69;;;1.18;100.00
13705;BME280;6924;52.122;9.952;2023-01-19T13:00:33;99302.97;;;1.22;100.00
13705;BME280;6924;52.122;9.952;2023-01-19T13:03:00;99305.53;;;1.08;100.00
13705;BME280;6924;52.122;9.952;2023-01-19T13:05:58;99313.34;;;0.96;100.00
13705;BME280;6924;52.122;9.952;2023-01-19T13:08:55;99314.19;;;1.01;100.00
13705;BME280;6924;52.122;9.952;2023-01-19T13:11:22;99312.22;;;1.02;100.00
13705;BME280;6924;52.122;9.952;2023-01-19T13:16:58;99319.50;;;0.72;100.00
13705;BME280;6924;52.122;9.952;2023-01-19T13:19:42;99320.59;;;0.76;100.00
13705;BME280;6924;52.122;9.952;2023-01-19T13:25:33;99325.34;;;0.76;100.00
13705;BME280;6924;52.122;9.952;2023-01-19T13:28:05;99329.22;;;0.75;100.00
13705;BME280;6924;52.122;9.952;2023-01-19T13:30:34;99333.41;;;0.72;100.00